createdAt,value
2023-03-22T00:00:29.388Z,74.37
2023-03-22T00:03:00.658Z,75.21
2023-03-22T00:05:30.499Z,75.51
2023-03-22T00:07:59.109Z,75.66
2023-03-22T00:10:29.745Z,75.48
2023-03-22T00:12:57.860Z,75.22
2023-03-22T00:15:26.436Z,74.43
2023-03-22T00:17:54.519Z,75.59
2023-03-22T00:20:24.677Z,75.57
2023-03-22T00:22:54.918Z,75.43
2023-03-22T00:25:22.963Z,76.15
2023-03-22T00:27:51.057Z,75.72
2023-03-22T00:30:19.398Z,76.42
2023-03-22T00:32:47.514Z,76.16
2023-03-22T00:35:15.698Z,76.25
2023-03-22T00:37:44.989Z,75.69
2023-03-22T00:40:16.196Z,75.95
2023-03-22T00:42:46.948Z,76.07
2023-03-22T00:45:15.126Z,75.97
2023-03-22T00:47:43.195Z,75.60
2023-03-22T00:50:11.946Z,75.21
2023-03-22T00:52:40.097Z,75.78
2023-03-22T00:55:09.760Z,75.58
2023-03-22T00:57:38.002Z,75.87
2023-03-22T01:00:10.404Z,75.89
2023-03-22T01:02:38.402Z,75.62
2023-03-22T01:05:06.995Z,75.36
2023-03-22T01:07:38.327Z,75.62
2023-03-22T01:10:07.382Z,75.71
2023-03-22T01:12:37.095Z,75.93
2023-03-22T01:15:06.015Z,75.90
2023-03-22T01:17:34.022Z,75.90
2023-03-22T01:20:02.155Z,75.62
2023-03-22T01:22:30.516Z,76.38
2023-03-22T01:24:58.530Z,76.94
2023-03-22T01:27:28.709Z,76.81
2023-03-22T01:29:59.586Z,77.21
2023-03-22T01:32:27.611Z,77.33
2023-03-22T01:34:55.693Z,77.44
2023-03-22T01:37:27.784Z,76.97
2023-03-22T01:39:56.316Z,76.56
2023-03-22T01:42:27.251Z,76.80
2023-03-22T01:45:40.889Z,76.97
2023-03-22T01:48:16.864Z,77.16
2023-03-22T01:50:51.680Z,77.47
2023-03-22T01:53:27.935Z,77.87
2023-03-22T01:55:58.923Z,77.73
2023-03-22T01:58:27.878Z,77.13
2023-03-22T02:00:58.039Z,77.49
2023-03-22T02:03:37.985Z,78.08
2023-03-22T02:06:06.331Z,78.13
2023-03-22T02:08:34.738Z,78.18
2023-03-22T02:11:05.644Z,77.87
2023-03-22T02:13:58.170Z,78.35
2023-03-22T02:16:41.257Z,77.54
2023-03-22T02:19:42.562Z,78.03
2023-03-22T02:22:43.697Z,77.62
2023-03-22T02:26:02.202Z,78.03
2023-03-22T02:28:42.508Z,78.09
2023-03-22T02:31:37.545Z,77.65
2023-03-22T02:34:41.955Z,77.36
2023-03-22T02:37:40.341Z,77.68
2023-03-22T02:40:18.538Z,78.72
2023-03-22T02:42:59.694Z,78.26
2023-03-22T02:45:35.478Z,78.08
2023-03-22T02:48:16.992Z,78.13
2023-03-22T02:50:54.808Z,78.33
2023-03-22T02:53:31.570Z,77.94
2023-03-22T02:56:05.644Z,77.89
2023-03-22T02:58:40.443Z,76.94
2023-03-22T03:01:18.049Z,76.68
2023-03-22T03:03:50.915Z,76.85
2023-03-22T03:06:25.734Z,76.65
2023-03-22T03:08:58.147Z,76.74
2023-03-22T03:11:27.602Z,76.71
2023-03-22T03:13:55.820Z,76.86
2023-03-22T03:16:29.800Z,76.62
2023-03-22T03:19:04.929Z,77.04
2023-03-22T03:21:46.458Z,77.32
2023-03-22T03:24:24.204Z,78.15
2023-03-22T03:27:01.769Z,77.60
2023-03-22T03:29:38.332Z,77.34
2023-03-22T03:32:14.302Z,77.93
2023-03-22T03:34:49.761Z,78.75
2023-03-22T03:37:24.178Z,78.70
2023-03-22T03:39:59.588Z,78.44
2023-03-22T03:42:31.694Z,77.90
2023-03-22T03:45:00.673Z,78.07
2023-03-22T03:47:30.671Z,77.82
2023-03-22T03:49:59.011Z,77.79
2023-03-22T03:52:27.360Z,77.54
2023-03-22T03:54:55.557Z,77.36
2023-03-22T03:57:25.266Z,78.57
2023-03-22T03:59:55.237Z,78.09
2023-03-22T04:02:23.474Z,77.84
2023-03-22T04:04:52.754Z,77.90
2023-03-22T04:07:20.883Z,78.89
2023-03-22T04:09:49.130Z,79.25
2023-03-22T04:12:17.194Z,78.33
2023-03-22T04:14:45.357Z,78.51
2023-03-22T04:17:14.795Z,79.00
2023-03-22T04:19:44.740Z,78.64
2023-03-22T04:22:14.695Z,79.03
2023-03-22T04:24:43.242Z,78.79
2023-03-22T04:27:11.103Z,78.84
2023-03-22T04:29:38.958Z,78.55
2023-03-22T04:32:06.870Z,79.30
2023-03-22T04:34:36.180Z,79.10
2023-03-22T04:37:04.016Z,78.65
2023-03-22T04:39:31.925Z,78.98
2023-03-22T04:41:59.797Z,78.98
2023-03-22T04:44:27.803Z,79.00
2023-03-22T04:46:55.949Z,79.12
2023-03-22T04:49:23.867Z,78.52
2023-03-22T04:51:53.127Z,78.38
2023-03-22T04:54:21.015Z,78.08
2023-03-22T04:56:49.147Z,78.49
2023-03-22T04:59:20.337Z,78.26
2023-03-22T05:01:48.611Z,78.29
2023-03-22T05:04:16.986Z,78.05
2023-03-22T05:06:45.303Z,78.63
2023-03-22T05:09:15.717Z,78.79
2023-03-22T05:11:43.862Z,78.90
2023-03-22T05:14:12.725Z,78.66
2023-03-22T05:16:42.752Z,78.97
2023-03-22T05:19:14.243Z,79.84
2023-03-22T05:21:44.252Z,80.11
2023-03-22T05:24:14.244Z,78.91
2023-03-22T05:26:53.948Z,79.02
2023-03-22T05:29:22.643Z,78.88
2023-03-22T05:31:50.674Z,79.33
2023-03-22T05:34:20.344Z,79.52
2023-03-22T05:36:48.420Z,79.36
2023-03-22T05:39:17.734Z,80.08
2023-03-22T05:41:46.325Z,80.07
2023-03-22T05:44:14.273Z,79.42
2023-03-22T05:46:42.272Z,79.17
2023-03-22T05:49:12.106Z,79.81
2023-03-22T05:51:42.101Z,79.81
2023-03-22T05:54:10.605Z,80.23
2023-03-22T05:56:40.740Z,79.50
2023-03-22T05:59:08.846Z,78.90
2023-03-22T06:01:36.814Z,79.78
2023-03-22T06:04:05.062Z,79.38
2023-03-22T06:06:35.351Z,79.91
2023-03-22T06:09:16.476Z,79.23
2023-03-22T06:11:46.841Z,79.46
2023-03-22T06:14:14.806Z,79.25
2023-03-22T06:16:42.740Z,78.61
2023-03-22T06:19:10.775Z,78.71
2023-03-22T06:21:38.636Z,78.84
2023-03-22T06:24:07.072Z,79.44
2023-03-22T06:26:35.068Z,79.32
2023-03-22T06:29:04.408Z,79.13
2023-03-22T06:31:32.291Z,78.76
2023-03-22T06:34:00.336Z,77.82
2023-03-22T06:36:31.532Z,77.40
2023-03-22T06:39:01.121Z,76.75
2023-03-22T06:41:29.121Z,76.61
2023-03-22T06:43:56.998Z,76.35
2023-03-22T06:46:26.423Z,76.29
2023-03-22T06:48:54.373Z,75.54
2023-03-22T06:51:22.327Z,74.07
2023-03-22T06:53:50.302Z,73.47
2023-03-22T06:56:18.195Z,71.60
2023-03-22T06:58:46.089Z,70.49
2023-03-22T07:01:14.048Z,70.34
2023-03-22T07:03:43.312Z,69.65
2023-03-22T07:06:11.411Z,69.27
2023-03-22T07:08:40.206Z,68.72
2023-03-22T07:11:08.268Z,68.56
2023-03-22T07:13:36.225Z,67.83
2023-03-22T07:16:05.980Z,67.59
2023-03-22T07:18:33.830Z,67.34
2023-03-22T07:21:03.177Z,67.37
2023-03-22T07:23:31.397Z,67.33
2023-03-22T07:26:00.662Z,67.40
2023-03-22T07:28:28.606Z,66.42
2023-03-22T07:31:02.926Z,66.34
2023-03-22T07:33:30.830Z,66.19
2023-03-22T07:35:58.767Z,65.27
2023-03-22T07:38:28.099Z,66.26
2023-03-22T07:40:56.113Z,66.62
2023-03-22T07:43:24.720Z,67.54
2023-03-22T07:45:53.785Z,67.56
2023-03-22T07:48:23.592Z,66.52
2023-03-22T07:50:55.417Z,65.93
2023-03-22T07:53:23.329Z,67.10
2023-03-22T07:55:52.562Z,66.30
2023-03-22T07:58:20.588Z,66.72
2023-03-22T08:00:49.709Z,67.02
2023-03-22T08:03:17.849Z,66.54
2023-03-22T08:05:45.785Z,66.24
2023-03-22T08:08:13.710Z,66.81
2023-03-22T08:10:41.777Z,66.21
2023-03-22T08:13:11.129Z,66.00
2023-03-22T08:15:39.374Z,66.05
2023-03-22T08:18:08.691Z,64.98
2023-03-22T08:20:38.214Z,64.98
2023-03-22T08:23:08.009Z,63.82
2023-03-22T08:25:37.068Z,63.73
2023-03-22T08:28:05.120Z,64.17
2023-03-22T08:30:34.574Z,64.97
2023-03-22T08:33:02.817Z,65.06
2023-03-22T08:35:30.786Z,64.69
2023-03-22T08:37:58.606Z,63.16
2023-03-22T08:40:26.627Z,63.47
2023-03-22T08:42:54.626Z,62.24
2023-03-22T08:45:22.507Z,63.53
2023-03-22T08:47:51.849Z,63.16
2023-03-22T08:50:19.986Z,63.13
2023-03-22T08:52:47.874Z,63.36
2023-03-22T08:55:17.502Z,62.47
2023-03-22T08:57:50.253Z,63.74
2023-03-22T09:00:19.760Z,62.63
2023-03-22T09:02:47.919Z,62.44
2023-03-22T09:05:17.292Z,62.60
2023-03-22T09:07:45.318Z,62.34
2023-03-22T09:10:13.748Z,61.83
2023-03-22T09:12:42.068Z,62.43
2023-03-22T09:15:10.467Z,61.88
2023-03-22T09:17:38.470Z,60.77
2023-03-22T09:20:12.860Z,60.32
2023-03-22T09:22:42.590Z,59.01
2023-03-22T09:25:12.792Z,57.59
2023-03-22T09:27:41.371Z,55.84
2023-03-22T09:30:10.208Z,54.24
2023-03-22T09:32:40.707Z,54.01
2023-03-22T09:35:08.985Z,53.36
2023-03-22T09:37:36.815Z,52.84
2023-03-22T09:40:08.158Z,52.28
2023-03-22T09:42:41.976Z,52.88
2023-03-22T09:45:17.777Z,53.50
2023-03-22T09:47:49.804Z,52.12
2023-03-22T09:50:22.540Z,52.90
2023-03-22T09:52:51.759Z,53.20
2023-03-22T09:55:28.927Z,52.58
2023-03-22T09:58:07.594Z,52.21
2023-03-22T10:00:44.962Z,52.62
2023-03-22T10:03:36.497Z,52.65
2023-03-22T10:06:10.347Z,52.64
2023-03-22T10:08:50.450Z,53.18
2023-03-22T10:11:35.445Z,52.50
2023-03-22T10:14:23.613Z,53.35
2023-03-22T10:16:56.494Z,52.56
2023-03-22T10:19:31.216Z,51.80
2023-03-22T10:22:03.924Z,52.37
2023-03-22T10:24:36.238Z,54.70
2023-03-22T10:27:16.745Z,52.30
2023-03-22T10:29:52.085Z,53.06
2023-03-22T10:32:25.105Z,54.45
2023-03-22T10:34:53.764Z,52.86
2023-03-22T10:37:26.425Z,53.27
2023-03-22T10:39:59.749Z,52.06
2023-03-22T10:42:32.092Z,52.58
2023-03-22T10:45:05.150Z,51.57
2023-03-22T10:47:37.295Z,52.10
2023-03-22T10:50:13.087Z,51.55
2023-03-22T10:52:48.934Z,50.56
2023-03-22T10:55:17.462Z,51.59
2023-03-22T10:58:02.863Z,51.34
2023-03-22T11:00:31.043Z,50.46
2023-03-22T11:03:01.684Z,51.23
2023-03-22T11:05:31.199Z,52.04
2023-03-22T11:08:00.159Z,50.78
2023-03-22T11:10:32.704Z,50.50
2023-03-22T11:13:24.518Z,49.40
2023-03-22T11:15:56.695Z,50.66
2023-03-22T11:18:30.305Z,49.36
2023-03-22T11:21:01.552Z,50.43
2023-03-22T11:23:35.383Z,50.92
2023-03-22T11:26:10.156Z,49.29
2023-03-22T11:28:46.400Z,50.21
2023-03-22T11:31:17.330Z,50.00
2023-03-22T11:33:57.211Z,48.26
2023-03-22T11:36:26.219Z,49.73
2023-03-22T11:38:59.848Z,48.19
2023-03-22T11:41:30.774Z,49.20
2023-03-22T11:44:05.907Z,47.73
2023-03-22T11:46:37.370Z,48.63
2023-03-22T11:49:10.082Z,48.90
2023-03-22T11:51:40.288Z,47.99
2023-03-22T11:54:15.872Z,47.71
2023-03-22T11:56:48.069Z,47.96
2023-03-22T11:59:27.764Z,47.56
2023-03-22T12:02:04.329Z,46.76
2023-03-22T12:04:39.239Z,46.13
2023-03-22T12:07:16.177Z,48.04
2023-03-22T12:09:50.806Z,47.72
2023-03-22T12:12:23.310Z,47.59
2023-03-22T12:15:01.635Z,45.90
2023-03-22T12:17:40.085Z,46.32
2023-03-22T12:20:22.730Z,47.64
2023-03-22T12:22:55.019Z,45.07
2023-03-22T12:25:26.648Z,44.25
2023-03-22T12:27:58.177Z,44.97
2023-03-22T12:30:32.679Z,45.24
2023-03-22T12:33:07.013Z,44.44
2023-03-22T12:35:37.973Z,44.88
2023-03-22T12:38:21.259Z,45.75
2023-03-22T12:40:50.676Z,44.96
2023-03-22T12:43:38.549Z,44.50
2023-03-22T12:46:18.995Z,46.35
2023-03-22T12:48:52.613Z,44.30
2023-03-22T12:51:20.587Z,45.43
2023-03-22T12:53:52.300Z,45.44
2023-03-22T12:56:24.813Z,45.02
2023-03-22T12:58:57.651Z,44.48
2023-03-22T13:01:37.899Z,43.58
2023-03-22T13:04:28.286Z,44.29
2023-03-22T13:06:59.424Z,43.70
2023-03-22T13:09:40.542Z,44.99
2023-03-22T13:12:32.911Z,45.16
2023-03-22T13:15:05.140Z,45.58
2023-03-22T13:17:44.749Z,44.17
2023-03-22T13:20:27.769Z,45.31
2023-03-22T13:23:12.959Z,45.38
2023-03-22T13:26:01.664Z,45.73
2023-03-22T13:28:30.964Z,45.29
2023-03-22T13:31:00.347Z,45.28
2023-03-22T13:33:32.150Z,44.20
2023-03-22T13:36:07.275Z,44.23
2023-03-22T13:38:41.024Z,44.91
2023-03-22T13:41:23.047Z,43.76
2023-03-22T13:43:53.154Z,44.12
2023-03-22T13:46:46.519Z,45.64
2023-03-22T13:49:42.983Z,42.61
2023-03-22T13:52:22.993Z,43.41
2023-03-22T13:54:54.363Z,43.73
2023-03-22T13:57:49.140Z,42.42
2023-03-22T14:00:49.248Z,43.60
2023-03-22T14:03:27.397Z,43.90
2023-03-22T14:06:09.526Z,44.16
2023-03-22T14:08:41.703Z,44.35
2023-03-22T14:11:21.774Z,44.29
2023-03-22T14:13:54.614Z,45.22
2023-03-22T14:16:36.647Z,44.10
2023-03-22T14:19:07.836Z,45.10
2023-03-22T14:21:40.947Z,45.06
